createdAt,value
2022-08-03T00:03:30.544Z,1.33
2022-08-03T00:08:32.376Z,1.30
2022-08-03T00:13:39.575Z,1.10
2022-08-03T00:18:41.533Z,1.15
2022-08-03T00:23:51.888Z,1.08
2022-08-03T00:28:54.394Z,1.35
2022-08-03T00:33:58.982Z,1.20
2022-08-03T00:39:01.743Z,0.90
2022-08-03T00:44:03.953Z,1.10
2022-08-03T00:49:05.792Z,1.02
2022-08-03T00:54:07.563Z,1.17
2022-08-03T00:59:10.545Z,1.10
2022-08-03T01:04:12.422Z,1.60
2022-08-03T01:09:31.452Z,1.10
2022-08-03T01:14:41.567Z,1.38
2022-08-03T01:20:07.777Z,1.17
2022-08-03T01:25:32.856Z,1.10
2022-08-03T01:30:37.865Z,1.35
2022-08-03T01:35:57.714Z,1.23
2022-08-03T01:41:07.376Z,1.17
2022-08-03T01:46:10.266Z,1.00
2022-08-03T01:51:12.988Z,0.98
2022-08-03T01:56:17.618Z,0.90
2022-08-03T02:01:22.157Z,1.10
2022-08-03T02:07:00.815Z,1.10
2022-08-03T02:11:48.045Z,1.38
2022-08-03T02:16:51.562Z,1.20
2022-08-03T02:21:57.387Z,1.40
2022-08-03T02:27:06.707Z,1.45
2022-08-03T02:32:16.217Z,1.20
2022-08-03T02:37:20.053Z,1.20
2022-08-03T02:42:23.243Z,1.40
2022-08-03T02:47:27.939Z,1.20
2022-08-03T02:52:31.279Z,1.40
2022-08-03T02:57:35.022Z,1.50
2022-08-03T03:02:37.935Z,1.10
2022-08-03T03:07:52.087Z,1.15
2022-08-03T03:12:59.283Z,1.30
2022-08-03T03:18:01.881Z,1.40
2022-08-03T03:23:05.027Z,1.30
2022-08-03T03:28:07.022Z,1.13
2022-08-03T03:33:09.167Z,1.33
2022-08-03T03:38:11.232Z,1.90
2022-08-03T03:43:13.459Z,1.50
2022-08-03T03:48:15.448Z,1.40
2022-08-03T03:53:17.352Z,1.10
2022-08-03T03:58:20.103Z,1.35
2022-08-03T04:03:26.813Z,1.30
2022-08-03T04:08:47.040Z,1.80
2022-08-03T04:14:05.047Z,1.67
2022-08-03T04:19:11.659Z,1.58
2022-08-03T04:24:15.325Z,1.60
2022-08-03T04:29:19.431Z,1.90
2022-08-03T04:34:21.345Z,1.98
2022-08-03T04:39:26.532Z,1.92
2022-08-03T04:44:29.808Z,1.25
2022-08-03T04:49:32.241Z,1.17
2022-08-03T04:54:41.870Z,1.00
2022-08-03T04:59:43.783Z,1.00
2022-08-03T05:04:46.560Z,1.02
2022-08-03T05:09:52.318Z,1.42
2022-08-03T05:14:55.858Z,1.08
2022-08-03T05:19:57.652Z,1.07
2022-08-03T05:25:00.732Z,1.50
2022-08-03T05:30:31.532Z,1.90
2022-08-03T05:36:00.766Z,1.55
2022-08-03T05:40:57.585Z,1.98
2022-08-03T05:46:13.037Z,1.67
2022-08-03T05:51:15.166Z,1.40
2022-08-03T05:56:17.167Z,1.35
2022-08-03T06:01:23.912Z,1.67
2022-08-03T06:06:29.309Z,1.90
2022-08-03T06:11:33.679Z,2.58
2022-08-03T06:16:35.755Z,3.00
2022-08-03T06:21:37.424Z,2.65
2022-08-03T06:26:42.007Z,2.50
2022-08-03T06:31:43.707Z,2.22
2022-08-03T06:36:48.394Z,1.75
2022-08-03T06:41:50.192Z,1.75
2022-08-03T06:46:53.081Z,1.58
2022-08-03T06:52:04.908Z,1.35
2022-08-03T06:57:11.531Z,1.23
2022-08-03T07:02:19.016Z,1.60
2022-08-03T07:07:21.224Z,1.40
2022-08-03T07:12:22.963Z,1.40
2022-08-03T07:17:24.803Z,1.23
2022-08-03T07:22:27.053Z,1.60
2022-08-03T07:27:29.802Z,1.52
2022-08-03T07:32:31.904Z,1.13
2022-08-03T07:37:34.192Z,1.40
2022-08-03T07:42:35.969Z,1.38
2022-08-03T07:47:37.772Z,1.00
2022-08-03T07:52:48.480Z,1.10
2022-08-03T07:58:01.255Z,1.40
2022-08-03T08:03:03.438Z,1.25
2022-08-03T08:08:05.231Z,1.20
2022-08-03T08:13:07.017Z,1.23
2022-08-03T08:18:08.746Z,1.00
2022-08-03T08:23:33.236Z,0.95
2022-08-03T08:28:33.827Z,1.10
2022-08-03T08:34:02.187Z,1.00
2022-08-03T08:38:57.997Z,1.20
2022-08-03T08:44:00.178Z,1.25
2022-08-03T08:49:04.583Z,1.50
2022-08-03T08:54:08.419Z,1.15
2022-08-03T08:59:10.407Z,1.00
2022-08-03T09:04:12.295Z,1.50
2022-08-03T09:14:45.396Z,1.40
2022-08-03T09:20:08.805Z,1.27
2022-08-03T09:25:24.302Z,1.00
2022-08-03T09:30:34.226Z,1.13
2022-08-03T09:35:54.757Z,1.20
2022-08-03T09:41:00.425Z,1.10
2022-08-03T09:46:04.726Z,1.10
2022-08-03T09:51:33.000Z,0.90
2022-08-03T09:56:43.926Z,1.00
2022-08-03T10:01:45.695Z,0.90
2022-08-03T10:07:03.516Z,1.23
2022-08-03T10:12:12.984Z,1.30
2022-08-03T10:17:15.586Z,1.08
2022-08-03T10:22:23.321Z,0.95
2022-08-03T10:27:27.422Z,1.20
2022-08-03T10:32:38.591Z,0.90
2022-08-03T10:37:56.496Z,1.10
2022-08-03T10:43:11.991Z,1.17
2022-08-03T10:48:14.554Z,1.10
2022-08-03T10:53:18.676Z,1.10
2022-08-03T10:58:53.245Z,1.13
2022-08-03T11:03:59.050Z,1.00
2022-08-03T11:09:19.504Z,1.20
2022-08-03T11:14:22.164Z,1.17
2022-08-03T11:19:56.922Z,1.20
2022-08-03T11:25:00.133Z,1.30
2022-08-03T11:30:29.021Z,1.23
2022-08-03T11:35:31.994Z,0.93
2022-08-03T11:40:47.517Z,1.20
2022-08-03T11:46:03.701Z,0.95
2022-08-03T11:51:07.920Z,1.08
2022-08-03T11:56:12.969Z,1.30
2022-08-03T12:01:21.196Z,1.05
2022-08-03T12:06:24.667Z,1.13
2022-08-03T12:11:26.829Z,1.02
2022-08-03T12:16:28.906Z,1.27
2022-08-03T12:21:31.493Z,1.20
2022-08-03T12:26:58.372Z,1.10
2022-08-03T12:32:01.440Z,1.27
2022-08-03T12:37:05.380Z,1.30
2022-08-03T12:42:31.177Z,1.30
2022-08-03T12:47:59.382Z,1.17
2022-08-03T12:53:03.953Z,0.93
2022-08-03T12:58:07.936Z,1.30
2022-08-03T13:08:31.461Z,1.30
2022-08-03T13:13:39.761Z,1.00
2022-08-03T13:18:41.673Z,1.20
2022-08-03T13:23:44.122Z,1.00
2022-08-03T13:28:45.911Z,1.15
2022-08-03T13:33:47.633Z,1.00
2022-08-03T13:38:49.365Z,1.10
2022-08-03T13:44:06.686Z,1.20
2022-08-03T13:49:12.993Z,1.10
2022-08-03T13:54:14.753Z,1.10
2022-08-03T13:59:16.481Z,1.20
2022-08-03T14:04:21.895Z,1.10
2022-08-03T14:09:24.215Z,1.00
2022-08-03T14:14:25.958Z,1.20
2022-08-03T14:19:28.156Z,1.25
2022-08-03T14:24:30.132Z,1.20
2022-08-03T14:29:32.118Z,1.23
2022-08-03T14:34:33.844Z,1.23
2022-08-03T14:45:01.790Z,1.10
2022-08-03T14:50:36.511Z,1.13
2022-08-03T14:55:29.443Z,1.10
2022-08-03T15:05:42.762Z,1.02
2022-08-03T15:10:45.600Z,1.10
2022-08-03T15:15:48.445Z,1.10
2022-08-03T15:20:50.851Z,1.02
2022-08-03T15:26:30.331Z,1.20
2022-08-03T15:31:18.961Z,1.00
2022-08-03T15:36:21.069Z,0.93
2022-08-03T15:41:22.815Z,0.90
2022-08-03T15:46:29.733Z,1.23
2022-08-03T15:51:31.844Z,1.10
2022-08-03T15:56:33.718Z,1.00
2022-08-03T16:01:35.575Z,1.50
2022-08-03T16:06:37.389Z,0.90
2022-08-03T16:11:39.178Z,1.20
2022-08-03T16:16:41.150Z,1.00
2022-08-03T16:21:48.179Z,1.10
2022-08-03T16:26:50.724Z,1.25
2022-08-03T16:36:54.650Z,0.82
2022-08-03T16:42:01.293Z,0.90
2022-08-03T16:47:03.734Z,0.93
2022-08-03T16:52:07.139Z,1.10
2022-08-03T16:57:09.005Z,1.13
2022-08-03T17:02:21.875Z,1.10
2022-08-03T17:07:31.668Z,0.82
2022-08-03T17:12:33.451Z,0.90
2022-08-03T17:17:53.459Z,0.90
2022-08-03T17:23:06.995Z,1.00
2022-08-03T17:28:48.359Z,0.88
2022-08-03T17:33:40.336Z,1.13
2022-08-03T17:38:54.911Z,0.90
2022-08-03T17:44:15.777Z,1.17
2022-08-03T17:49:25.191Z,0.68
2022-08-03T17:55:55.334Z,1.00
2022-08-03T18:00:34.088Z,0.90
2022-08-03T18:06:12.055Z,0.65
2022-08-03T18:16:33.425Z,0.95
2022-08-03T18:22:02.032Z,0.90
2022-08-03T18:27:02.481Z,0.95
2022-08-03T18:32:12.942Z,1.00
2022-08-03T18:37:23.096Z,1.00
2022-08-03T18:42:27.004Z,1.17
2022-08-03T18:47:51.506Z,1.00
2022-08-03T18:53:16.319Z,1.13
2022-08-03T18:58:46.609Z,1.33
2022-08-03T19:03:53.089Z,1.20
2022-08-03T19:08:56.054Z,1.20
2022-08-03T19:14:00.161Z,1.40
2022-08-03T19:19:02.527Z,1.20
2022-08-03T19:29:58.779Z,1.15
2022-08-03T19:34:53.403Z,1.40
2022-08-03T19:39:57.970Z,1.35
2022-08-03T19:45:13.963Z,1.25
2022-08-03T19:50:18.912Z,1.30
2022-08-03T19:55:22.775Z,1.20
2022-08-03T20:05:52.267Z,1.40
2022-08-03T20:10:56.076Z,1.10
2022-08-03T20:15:58.114Z,1.30
2022-08-03T20:21:06.428Z,1.85
2022-08-03T20:26:20.106Z,1.20
2022-08-03T20:31:32.395Z,1.50
2022-08-03T20:36:38.291Z,1.45
2022-08-03T20:41:41.121Z,1.95
2022-08-03T20:46:53.152Z,1.13
2022-08-03T20:52:01.915Z,1.30
2022-08-03T20:57:09.503Z,1.50
2022-08-03T21:02:12.620Z,1.20
2022-08-03T21:07:23.954Z,1.50
2022-08-03T21:12:47.846Z,1.38
2022-08-03T21:13:03.413Z,1.13
2022-08-03T21:13:11.242Z,1.20
2022-08-03T21:17:54.537Z,1.30
2022-08-03T21:22:57.800Z,1.33
2022-08-03T21:28:00.874Z,1.40
2022-08-03T21:33:06.570Z,1.10
2022-08-03T21:38:20.725Z,1.40
2022-08-03T21:48:38.827Z,1.38
2022-08-03T21:54:02.558Z,1.42
2022-08-03T21:59:07.731Z,1.33
2022-08-03T22:04:11.843Z,1.25
2022-08-03T22:09:13.992Z,1.60
2022-08-03T22:14:15.940Z,1.48
2022-08-03T22:19:17.730Z,1.58
2022-08-03T22:24:24.039Z,1.20
2022-08-03T22:29:25.951Z,1.23
2022-08-03T22:34:29.486Z,1.30
2022-08-03T22:39:31.472Z,1.30
2022-08-03T22:44:35.677Z,1.05
2022-08-03T22:49:38.252Z,0.95
2022-08-03T22:54:41.059Z,1.43
2022-08-03T22:59:44.830Z,1.10
2022-08-03T23:04:51.644Z,1.05
2022-08-03T23:09:55.179Z,1.25
2022-08-03T23:20:08.189Z,1.23
2022-08-03T23:25:11.341Z,1.60
2022-08-03T23:30:13.219Z,1.63
2022-08-03T23:36:27.533Z,2.20
2022-08-03T23:40:59.410Z,1.40
2022-08-03T23:46:02.825Z,1.30
2022-08-03T23:51:10.214Z,1.13
2022-08-03T23:56:27.208Z,1.10
